createdAt,value
2022-10-02T00:02:22.844Z,87.76
2022-10-02T00:05:21.789Z,87.54
2022-10-02T00:07:58.530Z,87.86
2022-10-02T00:10:31.729Z,87.68
2022-10-02T00:13:04.954Z,87.29
2022-10-02T00:15:39.720Z,86.25
2022-10-02T00:18:14.968Z,86.19
2022-10-02T00:21:09.115Z,87.15
2022-10-02T00:23:49.240Z,87.35
2022-10-02T00:26:20.337Z,87.47
2022-10-02T00:29:00.686Z,87.71
2022-10-02T00:31:45.000Z,87.61
2022-10-02T00:34:48.364Z,86.87
2022-10-02T00:37:34.356Z,86.36
2022-10-02T00:40:33.648Z,86.84
2022-10-02T00:43:01.931Z,86.81
2022-10-02T00:45:37.048Z,87.31
2022-10-02T00:48:20.039Z,87.67
2022-10-02T00:50:53.997Z,87.82
2022-10-02T00:53:40.821Z,88.25
2022-10-02T00:56:31.270Z,88.44
2022-10-02T00:59:13.685Z,88.43
2022-10-02T01:01:54.229Z,88.79
2022-10-02T01:04:37.161Z,88.63
2022-10-02T01:07:08.960Z,88.41
2022-10-02T01:09:37.990Z,87.46
2022-10-02T01:12:05.800Z,86.82
2022-10-02T01:14:38.768Z,85.57
2022-10-02T01:17:21.602Z,84.55
2022-10-02T01:19:50.244Z,84.82
2022-10-02T01:22:36.672Z,84.80
2022-10-02T01:25:06.668Z,84.62
2022-10-02T01:27:39.205Z,85.15
2022-10-02T01:30:14.443Z,86.04
2022-10-02T01:32:47.698Z,86.36
2022-10-02T01:35:16.812Z,86.56
2022-10-02T01:38:07.270Z,85.92
2022-10-02T01:40:47.980Z,86.18
2022-10-02T01:43:33.011Z,86.43
2022-10-02T01:46:28.292Z,86.23
2022-10-02T01:49:05.905Z,85.99
2022-10-02T01:52:12.379Z,86.36
2022-10-02T01:54:53.212Z,86.67
2022-10-02T01:57:36.110Z,86.44
2022-10-02T02:00:13.067Z,85.33
2022-10-02T02:03:05.871Z,85.77
2022-10-02T02:05:47.350Z,85.78
2022-10-02T02:08:28.983Z,85.62
2022-10-02T02:11:23.132Z,85.42
2022-10-02T02:13:59.995Z,85.41
2022-10-02T02:16:42.854Z,85.58
2022-10-02T02:19:36.870Z,85.50
2022-10-02T02:22:09.121Z,85.75
2022-10-02T02:24:39.540Z,86.17
2022-10-02T02:27:11.608Z,85.26
2022-10-02T02:29:43.473Z,84.03
2022-10-02T02:32:16.471Z,84.02
2022-10-02T02:34:57.849Z,83.28
2022-10-02T02:37:29.657Z,83.00
2022-10-02T02:40:02.199Z,81.89
2022-10-02T02:42:34.078Z,81.95
2022-10-02T02:45:37.763Z,81.72
2022-10-02T02:48:16.534Z,81.97
2022-10-02T02:50:57.649Z,81.86
2022-10-02T02:53:35.036Z,81.71
2022-10-02T02:56:06.871Z,82.07
2022-10-02T02:58:58.427Z,81.78
2022-10-02T03:01:27.248Z,81.44
2022-10-02T03:03:55.170Z,81.13
2022-10-02T03:06:31.737Z,81.33
2022-10-02T03:09:01.480Z,80.79
2022-10-02T03:11:44.495Z,80.77
2022-10-02T03:14:12.784Z,81.05
2022-10-02T03:17:07.694Z,80.42
2022-10-02T03:19:47.380Z,80.69
2022-10-02T03:22:36.571Z,80.75
2022-10-02T03:25:34.774Z,81.22
2022-10-02T03:28:50.471Z,81.09
2022-10-02T03:31:17.014Z,81.08
2022-10-02T03:33:46.624Z,80.59
2022-10-02T03:36:17.993Z,80.44
2022-10-02T03:38:56.920Z,80.34
2022-10-02T03:41:34.439Z,79.77
2022-10-02T03:44:02.416Z,79.82
2022-10-02T03:46:30.781Z,79.64
2022-10-02T03:48:58.908Z,80.00
2022-10-02T03:51:26.840Z,80.07
2022-10-02T03:53:54.775Z,79.95
2022-10-02T03:56:41.608Z,79.85
2022-10-02T03:59:27.347Z,80.34
2022-10-02T04:01:57.417Z,80.00
2022-10-02T04:04:38.221Z,79.79
2022-10-02T04:07:12.993Z,79.93
2022-10-02T04:09:52.076Z,79.09
2022-10-02T04:12:29.273Z,78.90
2022-10-02T04:15:09.580Z,79.11
2022-10-02T04:17:48.049Z,79.15
2022-10-02T04:20:31.736Z,78.94
2022-10-02T04:23:06.704Z,78.38
2022-10-02T04:25:39.884Z,78.81
2022-10-02T04:28:17.571Z,79.33
2022-10-02T04:30:45.449Z,78.86
2022-10-02T04:33:16.085Z,79.51
2022-10-02T04:35:59.154Z,79.52
2022-10-02T04:38:52.292Z,79.70
2022-10-02T04:42:15.322Z,79.18
2022-10-02T04:44:43.155Z,79.18
2022-10-02T04:47:23.613Z,78.61
2022-10-02T04:49:57.365Z,78.57
2022-10-02T04:52:34.096Z,78.89
2022-10-02T04:55:37.079Z,78.49
2022-10-02T04:58:21.735Z,78.29
2022-10-02T05:01:02.763Z,78.76
2022-10-02T05:03:45.593Z,78.65
2022-10-02T05:06:40.858Z,78.68
2022-10-02T05:09:14.675Z,78.57
2022-10-02T05:11:55.605Z,78.01
2022-10-02T05:15:03.991Z,78.17
2022-10-02T05:18:03.901Z,78.62
2022-10-02T05:20:45.978Z,78.61
2022-10-02T05:23:40.918Z,78.25
2022-10-02T05:26:42.857Z,78.23
2022-10-02T05:29:28.952Z,77.96
2022-10-02T05:32:31.273Z,78.06
2022-10-02T05:35:05.076Z,77.82
2022-10-02T05:37:41.644Z,77.41
2022-10-02T05:40:32.427Z,77.73
2022-10-02T05:43:29.833Z,78.06
2022-10-02T05:46:02.756Z,77.67
2022-10-02T05:48:54.274Z,77.79
2022-10-02T05:51:40.764Z,77.67
2022-10-02T05:54:31.653Z,78.03
2022-10-02T05:57:06.819Z,77.22
2022-10-02T05:59:53.075Z,77.34
2022-10-02T06:02:45.608Z,77.36
2022-10-02T06:05:30.680Z,76.76
2022-10-02T06:08:02.865Z,77.02
2022-10-02T06:10:41.142Z,77.19
2022-10-02T06:13:25.995Z,77.74
2022-10-02T06:16:13.850Z,77.98
2022-10-02T06:18:46.452Z,77.43
2022-10-02T06:21:31.708Z,77.10
2022-10-02T06:24:05.882Z,76.35
2022-10-02T06:26:43.780Z,75.93
2022-10-02T06:29:27.249Z,75.51
2022-10-02T06:32:22.369Z,74.25
2022-10-02T06:34:50.743Z,74.58
2022-10-02T06:37:53.459Z,74.23
2022-10-02T06:40:43.381Z,74.98
2022-10-02T06:43:32.850Z,74.88
2022-10-02T06:46:17.873Z,74.17
2022-10-02T06:48:46.259Z,74.28
2022-10-02T06:51:35.189Z,74.62
2022-10-02T06:54:12.393Z,73.60
2022-10-02T06:57:03.632Z,72.42
2022-10-02T07:00:12.883Z,72.15
2022-10-02T07:03:09.300Z,72.47
2022-10-02T07:06:12.192Z,72.20
2022-10-02T07:08:46.140Z,71.91
2022-10-02T07:11:43.396Z,72.18
2022-10-02T07:14:45.804Z,72.28
2022-10-02T07:17:22.883Z,71.73
2022-10-02T07:20:09.376Z,71.07
2022-10-02T07:22:58.807Z,70.29
2022-10-02T07:25:39.761Z,70.97
2022-10-02T07:28:27.546Z,71.21
2022-10-02T07:31:18.883Z,71.77
2022-10-02T07:34:06.484Z,71.10
2022-10-02T07:36:46.765Z,71.12
2022-10-02T07:39:28.668Z,70.32
2022-10-02T07:42:12.112Z,68.94
2022-10-02T07:44:45.776Z,68.49
2022-10-02T07:47:41.068Z,68.62
2022-10-02T07:50:39.393Z,68.49
2022-10-02T07:53:25.612Z,70.52
2022-10-02T07:55:54.968Z,69.53
2022-10-02T07:58:41.280Z,69.11
2022-10-02T08:01:18.372Z,68.22
2022-10-02T08:03:55.115Z,68.40
2022-10-02T08:06:23.052Z,68.91
2022-10-02T08:09:02.517Z,69.42
2022-10-02T08:11:39.110Z,68.39
2022-10-02T08:14:25.559Z,68.03
2022-10-02T08:16:56.796Z,68.17
2022-10-02T08:19:49.856Z,67.92
2022-10-02T08:22:25.721Z,68.47
2022-10-02T08:25:01.589Z,69.34
2022-10-02T08:27:35.476Z,70.12
2022-10-02T08:30:06.520Z,70.41
2022-10-02T08:32:36.684Z,71.32
2022-10-02T08:35:45.228Z,71.93
2022-10-02T08:38:32.636Z,72.27
2022-10-02T08:41:09.302Z,72.45
2022-10-02T08:43:39.944Z,73.22
2022-10-02T08:46:35.156Z,72.84
2022-10-02T08:49:27.319Z,72.85
2022-10-02T08:52:29.065Z,72.76
2022-10-02T08:55:02.736Z,72.93
2022-10-02T08:58:03.978Z,72.35
2022-10-02T09:00:41.915Z,72.69
2022-10-02T09:03:30.949Z,73.01
2022-10-02T09:06:10.531Z,73.19
2022-10-02T09:08:47.149Z,72.94
2022-10-02T09:11:14.973Z,73.16
2022-10-02T09:14:10.563Z,72.50
2022-10-02T09:17:00.343Z,72.85
2022-10-02T09:19:41.702Z,72.86
2022-10-02T09:22:40.602Z,72.15
2022-10-02T09:25:22.601Z,71.73
2022-10-02T09:28:12.407Z,71.70
2022-10-02T09:31:06.131Z,72.03
2022-10-02T09:33:54.909Z,72.26
2022-10-02T09:37:04.305Z,72.12
2022-10-02T09:39:43.049Z,71.46
2022-10-02T09:42:42.236Z,70.17
2022-10-02T09:45:32.510Z,69.54
2022-10-02T09:48:45.340Z,69.52
2022-10-02T09:51:36.282Z,68.98
2022-10-02T09:54:42.561Z,68.75
2022-10-02T09:57:32.154Z,67.55
2022-10-02T10:00:05.255Z,66.82
2022-10-02T10:02:46.963Z,65.64
2022-10-02T10:05:39.481Z,65.46
2022-10-02T10:08:16.190Z,65.05
2022-10-02T10:11:29.310Z,63.44
2022-10-02T10:14:24.687Z,63.52
2022-10-02T10:17:19.319Z,62.23
2022-10-02T10:20:22.354Z,63.21
2022-10-02T10:23:40.882Z,62.18
2022-10-02T10:26:42.025Z,61.43
2022-10-02T10:29:28.165Z,61.70
2022-10-02T10:32:12.284Z,61.78
2022-10-02T10:34:55.735Z,60.81
2022-10-02T10:37:57.725Z,61.05
2022-10-02T10:40:38.800Z,60.39
2022-10-02T10:43:16.812Z,60.42
2022-10-02T10:46:13.249Z,60.80
2022-10-02T10:48:47.103Z,60.28
2022-10-02T10:51:46.199Z,60.73
2022-10-02T10:54:32.850Z,60.42
2022-10-02T10:57:18.204Z,61.33
2022-10-02T10:59:58.775Z,60.98
2022-10-02T11:02:55.325Z,60.85
2022-10-02T11:05:38.094Z,60.13
2022-10-02T11:08:25.405Z,60.05
2022-10-02T11:11:11.736Z,60.30
2022-10-02T11:13:48.495Z,59.00
2022-10-02T11:16:45.780Z,58.61
2022-10-02T11:19:26.676Z,59.85
2022-10-02T11:22:17.429Z,59.80
2022-10-02T11:25:12.925Z,59.93
2022-10-02T11:27:50.928Z,60.64
2022-10-02T11:30:59.067Z,60.41
2022-10-02T11:33:41.798Z,59.64
2022-10-02T11:36:24.776Z,59.43
2022-10-02T11:39:36.302Z,59.18
2022-10-02T11:42:33.508Z,58.55
2022-10-02T11:45:29.537Z,59.70
2022-10-02T11:48:24.184Z,60.01
2022-10-02T11:50:55.106Z,58.86
2022-10-02T11:53:39.669Z,58.37
2022-10-02T11:56:25.333Z,57.72
2022-10-02T11:59:18.672Z,58.07
2022-10-02T12:01:58.197Z,58.49
2022-10-02T12:04:57.438Z,58.82
2022-10-02T12:07:36.694Z,57.34
2022-10-02T12:10:53.742Z,56.78
2022-10-02T12:13:43.151Z,57.00
2022-10-02T12:16:36.404Z,56.83
2022-10-02T12:20:05.174Z,55.87
2022-10-02T12:23:11.226Z,57.57
2022-10-02T12:26:18.305Z,57.50
2022-10-02T12:28:56.254Z,57.70
2022-10-02T12:31:37.165Z,57.59
2022-10-02T12:34:40.259Z,57.26
2022-10-02T12:37:45.011Z,57.83
2022-10-02T12:40:41.813Z,57.87
2022-10-02T12:43:38.349Z,58.01
2022-10-02T12:46:23.885Z,58.82
2022-10-02T12:49:09.987Z,58.34
2022-10-02T12:51:54.630Z,58.16
2022-10-02T12:54:34.999Z,58.42
2022-10-02T12:57:42.505Z,58.15
2022-10-02T13:00:16.305Z,58.44
2022-10-02T13:03:01.782Z,57.47
2022-10-02T13:06:03.679Z,58.04
2022-10-02T13:09:05.095Z,57.79
2022-10-02T13:11:49.040Z,58.29
2022-10-02T13:14:48.402Z,58.09
2022-10-02T13:17:48.745Z,57.41
2022-10-02T13:20:37.991Z,58.41
2022-10-02T13:23:20.430Z,58.17
2022-10-02T13:25:56.360Z,58.24
2022-10-02T13:28:27.222Z,57.93
2022-10-02T13:31:22.153Z,58.05
2022-10-02T13:34:25.435Z,58.37
2022-10-02T13:37:25.405Z,58.01
2022-10-02T13:39:59.225Z,58.14
2022-10-02T13:42:29.669Z,58.23
2022-10-02T13:45:11.472Z,57.46
2022-10-02T13:47:52.532Z,57.89
2022-10-02T13:50:42.062Z,56.90
2022-10-02T13:53:12.678Z,57.62
2022-10-02T13:55:48.101Z,57.27
2022-10-02T13:58:57.083Z,57.25
2022-10-02T14:01:35.278Z,56.56
2022-10-02T14:04:22.706Z,55.88
2022-10-02T14:07:12.217Z,55.97
2022-10-02T14:10:01.924Z,55.37
2022-10-02T14:12:55.049Z,55.49
2022-10-02T14:15:31.047Z,55.55
2022-10-02T14:18:13.920Z,55.72
2022-10-02T14:21:40.736Z,55.89
2022-10-02T14:24:14.225Z,55.59
2022-10-02T14:27:11.746Z,55.85
2022-10-02T14:29:39.523Z,55.69
2022-10-02T14:32:23.734Z,55.77
2022-10-02T14:35:19.327Z,55.85
2022-10-02T14:37:58.413Z,55.80
2022-10-02T14:40:33.232Z,55.83
2022-10-02T14:43:25.187Z,55.77
2022-10-02T14:45:55.969Z,55.97
2022-10-02T14:48:48.487Z,56.36
2022-10-02T14:51:51.914Z,55.74
2022-10-02T14:54:46.966Z,55.44
2022-10-02T14:57:23.655Z,55.49
2022-10-02T15:00:00.574Z,55.25
2022-10-02T15:02:40.648Z,55.21
2022-10-02T15:05:55.168Z,54.86
2022-10-02T15:08:39.177Z,55.10
2022-10-02T15:11:18.497Z,55.16
2022-10-02T15:13:58.383Z,54.69
2022-10-02T15:16:58.491Z,55.08
2022-10-02T15:19:35.432Z,55.19
2022-10-02T15:22:03.151Z,55.32
2022-10-02T15:24:43.020Z,55.22
2022-10-02T15:27:29.061Z,55.62
2022-10-02T15:30:21.415Z,56.18
2022-10-02T15:32:59.547Z,56.33
2022-10-02T15:35:54.191Z,56.92
2022-10-02T15:38:30.552Z,57.04
2022-10-02T15:41:22.681Z,56.90
2022-10-02T15:44:28.061Z,57.37
2022-10-02T15:47:26.220Z,57.74
2022-10-02T15:49:54.316Z,58.29
2022-10-02T15:52:28.162Z,58.54
2022-10-02T15:54:55.782Z,58.69
2022-10-02T15:57:51.443Z,58.96
2022-10-02T16:00:22.725Z,59.56
2022-10-02T16:03:02.277Z,59.48
2022-10-02T16:05:48.509Z,59.68
2022-10-02T16:08:41.705Z,59.95
2022-10-02T16:11:34.771Z,60.05
2022-10-02T16:14:30.123Z,60.30
2022-10-02T16:17:12.588Z,60.32
2022-10-02T16:20:14.567Z,61.11
2022-10-02T16:22:52.490Z,60.74
2022-10-02T16:25:31.343Z,61.21
2022-10-02T16:28:21.043Z,61.47
2022-10-02T16:30:52.811Z,61.53
2022-10-02T16:33:47.801Z,61.67
2022-10-02T16:36:39.109Z,62.17
2022-10-02T16:39:34.026Z,62.29
2022-10-02T16:42:25.801Z,62.32
2022-10-02T16:45:25.894Z,62.00
2022-10-02T16:48:09.766Z,62.46
2022-10-02T16:51:05.955Z,62.39
2022-10-02T16:54:09.635Z,62.79
2022-10-02T16:56:44.963Z,62.88
2022-10-02T16:59:19.032Z,63.18
2022-10-02T17:02:16.912Z,63.18
2022-10-02T17:04:59.439Z,63.64
2022-10-02T17:07:37.560Z,63.66
2022-10-02T17:10:19.150Z,63.63
2022-10-02T17:13:00.968Z,63.95
2022-10-02T17:15:39.171Z,63.99
2022-10-02T17:18:19.293Z,63.91
2022-10-02T17:20:54.974Z,64.07
2022-10-02T17:23:49.307Z,64.06
2022-10-02T17:26:35.780Z,64.70
2022-10-02T17:29:38.460Z,64.67
2022-10-02T17:32:10.183Z,64.35
2022-10-02T17:34:49.907Z,64.12
2022-10-02T17:37:17.642Z,64.49
2022-10-02T17:40:14.026Z,64.65
2022-10-02T17:42:53.055Z,64.72
2022-10-02T17:45:30.113Z,64.76
2022-10-02T17:48:35.784Z,65.08
2022-10-02T17:51:52.673Z,64.83
2022-10-02T17:55:47.401Z,64.30
2022-10-02T17:58:35.676Z,64.01
2022-10-02T18:01:57.681Z,64.34
2022-10-02T18:04:36.391Z,64.19
2022-10-02T18:07:45.876Z,63.99
2022-10-02T18:10:18.624Z,64.05
2022-10-02T18:13:01.172Z,63.94
2022-10-02T18:15:43.897Z,64.01
2022-10-02T18:18:38.424Z,64.12
2022-10-02T18:21:23.701Z,64.22
2022-10-02T18:24:42.829Z,64.71
2022-10-02T18:27:37.826Z,64.65
2022-10-02T18:30:08.916Z,64.87
2022-10-02T18:33:01.905Z,65.15
2022-10-02T18:36:12.708Z,64.88
2022-10-02T18:39:00.397Z,65.34
2022-10-02T18:41:41.263Z,65.72
2022-10-02T18:44:45.186Z,65.77
2022-10-02T18:47:38.657Z,66.34
2022-10-02T18:50:28.968Z,66.75
2022-10-02T18:53:28.973Z,66.63
2022-10-02T18:56:12.430Z,67.15
2022-10-02T18:58:49.116Z,66.83
2022-10-02T19:01:29.266Z,67.35
2022-10-02T19:04:17.466Z,67.84
2022-10-02T19:06:55.609Z,67.36
2022-10-02T19:09:27.233Z,67.21
2022-10-02T19:11:58.386Z,67.61
2022-10-02T19:14:35.149Z,67.85
2022-10-02T19:17:12.324Z,68.00
2022-10-02T19:19:41.255Z,67.53
2022-10-02T19:22:36.420Z,67.64
2022-10-02T19:25:13.577Z,67.45
2022-10-02T19:27:47.684Z,67.78
2022-10-02T19:30:27.601Z,67.36
2022-10-02T19:32:58.766Z,66.59
2022-10-02T19:35:34.724Z,67.11
2022-10-02T19:38:15.025Z,66.79
2022-10-02T19:40:43.288Z,66.76
2022-10-02T19:43:33.780Z,66.94
2022-10-02T19:46:08.482Z,67.23
2022-10-02T19:48:36.567Z,66.82
2022-10-02T19:51:17.159Z,66.73
2022-10-02T19:53:53.466Z,66.87
2022-10-02T19:56:34.395Z,66.67
2022-10-02T19:59:21.108Z,66.77
2022-10-02T20:01:52.306Z,67.02
2022-10-02T20:04:26.156Z,67.42
2022-10-02T20:06:56.188Z,66.96
2022-10-02T20:09:50.820Z,66.81
2022-10-02T20:12:26.799Z,66.85
2022-10-02T20:15:01.984Z,67.14
2022-10-02T20:17:31.808Z,68.05
2022-10-02T20:20:04.982Z,67.91
2022-10-02T20:22:52.497Z,68.01
2022-10-02T20:25:26.731Z,68.12
2022-10-02T20:28:03.392Z,68.52
2022-10-02T20:30:40.505Z,68.51
2022-10-02T20:33:20.818Z,68.60
2022-10-02T20:36:26.198Z,69.10
2022-10-02T20:39:11.380Z,69.10
2022-10-02T20:41:46.142Z,69.48
2022-10-02T20:44:14.228Z,69.26
2022-10-02T20:47:17.381Z,69.21
2022-10-02T20:49:47.789Z,69.27
2022-10-02T20:52:36.382Z,69.34
2022-10-02T20:55:33.618Z,69.53
2022-10-02T20:58:04.202Z,69.93
2022-10-02T21:01:07.285Z,69.70
2022-10-02T21:03:56.467Z,69.96
2022-10-02T21:06:50.617Z,70.21
2022-10-02T21:09:48.098Z,70.81
2022-10-02T21:12:50.321Z,71.04
2022-10-02T21:15:18.168Z,71.46
2022-10-02T21:18:09.712Z,71.70
2022-10-02T21:21:15.293Z,71.65
2022-10-02T21:24:01.532Z,72.03
2022-10-02T21:26:43.489Z,72.15
2022-10-02T21:29:17.121Z,72.34
2022-10-02T21:32:11.528Z,72.75
2022-10-02T21:34:39.134Z,73.02
2022-10-02T21:37:19.261Z,73.26
2022-10-02T21:40:35.283Z,73.67
2022-10-02T21:43:17.976Z,73.78
2022-10-02T21:46:10.337Z,74.01
2022-10-02T21:48:56.648Z,74.09
2022-10-02T21:51:39.978Z,74.24
2022-10-02T21:54:26.373Z,74.59
2022-10-02T21:57:21.476Z,74.62
2022-10-02T22:00:09.084Z,74.68
2022-10-02T22:03:00.174Z,74.90
2022-10-02T22:05:41.718Z,74.59
2022-10-02T22:08:21.614Z,74.89
2022-10-02T22:10:58.186Z,75.04
2022-10-02T22:13:37.141Z,75.03
2022-10-02T22:16:43.155Z,75.15
2022-10-02T22:19:26.232Z,75.36
2022-10-02T22:22:08.628Z,75.18
2022-10-02T22:25:08.309Z,75.09
2022-10-02T22:28:32.403Z,75.10
2022-10-02T22:31:24.471Z,75.07
2022-10-02T22:34:05.992Z,74.74
2022-10-02T22:36:43.868Z,75.16
2022-10-02T22:39:44.289Z,75.61
2022-10-02T22:42:34.286Z,75.72
2022-10-02T22:45:19.420Z,75.94
2022-10-02T22:48:04.512Z,75.63
2022-10-02T22:50:48.244Z,75.41
2022-10-02T22:53:31.597Z,75.67
2022-10-02T22:55:59.703Z,76.02
2022-10-02T22:58:41.994Z,75.93
2022-10-02T23:01:30.040Z,76.11
2022-10-02T23:04:08.163Z,76.31
2022-10-02T23:06:42.828Z,76.59
2022-10-02T23:09:57.871Z,76.87
2022-10-02T23:12:36.473Z,76.60
2022-10-02T23:15:07.287Z,76.81
2022-10-02T23:17:46.103Z,76.88
2022-10-02T23:20:27.535Z,77.18
2022-10-02T23:23:14.989Z,76.82
2022-10-02T23:25:50.397Z,76.89
2022-10-02T23:28:52.624Z,77.10
2022-10-02T23:31:32.188Z,76.99
2022-10-02T23:34:19.693Z,76.88
2022-10-02T23:36:58.358Z,76.65
2022-10-02T23:39:34.876Z,76.59
2022-10-02T23:42:06.011Z,76.72
2022-10-02T23:44:49.711Z,76.86
2022-10-02T23:47:46.209Z,77.05
2022-10-02T23:50:25.970Z,76.86
2022-10-02T23:53:06.037Z,76.99
2022-10-02T23:56:00.499Z,77.10
2022-10-02T23:58:54.504Z,77.26
